createdAt,value
2022-09-12T00:00:46.826Z,76.91
2022-09-12T00:03:32.300Z,76.62
2022-09-12T00:06:23.807Z,76.20
2022-09-12T00:09:14.133Z,75.99
2022-09-12T00:11:59.671Z,76.88
2022-09-12T00:14:44.908Z,76.24
2022-09-12T00:17:30.191Z,75.66
2022-09-12T00:20:15.472Z,75.83
2022-09-12T00:23:00.948Z,76.85
2022-09-12T00:25:48.296Z,76.75
2022-09-12T00:28:36.210Z,76.88
2022-09-12T00:31:25.004Z,76.45
2022-09-12T00:34:10.513Z,76.45
2022-09-12T00:36:55.795Z,75.73
2022-09-12T00:39:41.399Z,76.19
2022-09-12T00:42:26.670Z,77.02
2022-09-12T00:45:23.535Z,76.81
2022-09-12T00:48:21.746Z,77.21
2022-09-12T00:51:07.612Z,76.77
2022-09-12T00:53:55.426Z,77.13
2022-09-12T00:56:43.972Z,77.12
2022-09-12T00:59:38.609Z,76.80
2022-09-12T01:02:24.886Z,77.21
2022-09-12T01:05:10.455Z,77.08
2022-09-12T01:07:57.035Z,76.60
2022-09-12T01:10:42.809Z,77.39
2022-09-12T01:13:29.072Z,77.15
2022-09-12T01:16:14.942Z,77.15
2022-09-12T01:19:35.399Z,77.12
2022-09-12T01:22:51.544Z,76.60
2022-09-12T01:25:40.187Z,76.85
2022-09-12T01:28:47.878Z,77.14
2022-09-12T01:31:41.301Z,76.88
2022-09-12T01:34:34.385Z,76.77
2022-09-12T01:37:41.832Z,76.71
2022-09-12T01:40:40.740Z,76.44
2022-09-12T01:43:37.833Z,76.67
2022-09-12T01:46:51.054Z,77.19
2022-09-12T01:50:01.743Z,77.18
2022-09-12T01:52:53.503Z,76.94
2022-09-12T01:55:48.339Z,77.13
2022-09-12T01:58:41.833Z,77.01
2022-09-12T02:01:33.244Z,77.10
2022-09-12T02:04:23.177Z,77.15
2022-09-12T02:07:16.783Z,77.31
2022-09-12T02:10:22.503Z,77.22
2022-09-12T02:13:15.799Z,76.99
2022-09-12T02:16:16.015Z,76.82
2022-09-12T02:19:11.298Z,77.25
2022-09-12T02:22:00.106Z,77.15
2022-09-12T02:24:49.753Z,77.77
2022-09-12T02:27:44.646Z,77.05
2022-09-12T02:30:56.382Z,76.96
2022-09-12T02:33:49.232Z,77.42
2022-09-12T02:36:59.823Z,77.39
2022-09-12T02:39:45.701Z,77.53
2022-09-12T02:42:31.339Z,77.31
2022-09-12T02:45:17.957Z,77.77
2022-09-12T02:48:13.307Z,78.01
2022-09-12T02:50:59.136Z,78.03
2022-09-12T02:53:44.776Z,77.72
2022-09-12T02:56:31.066Z,77.99
2022-09-12T02:59:19.562Z,78.36
2022-09-12T03:02:20.097Z,78.17
2022-09-12T03:05:27.168Z,78.31
2022-09-12T03:08:15.902Z,78.22
2022-09-12T03:11:04.520Z,78.16
2022-09-12T03:13:57.337Z,78.56
2022-09-12T03:17:09.303Z,78.75
2022-09-12T03:19:57.914Z,78.74
2022-09-12T03:22:52.154Z,78.82
2022-09-12T03:26:09.536Z,79.10
2022-09-12T03:28:57.563Z,79.47
2022-09-12T03:31:57.899Z,79.19
2022-09-12T03:34:43.240Z,79.11
2022-09-12T03:37:28.498Z,78.83
2022-09-12T03:40:15.648Z,79.53
2022-09-12T03:43:00.777Z,79.21
2022-09-12T03:45:50.577Z,79.24
2022-09-12T03:48:36.326Z,79.45
2022-09-12T03:51:22.406Z,79.00
2022-09-12T03:54:07.761Z,79.28
2022-09-12T03:56:53.168Z,79.42
2022-09-12T03:59:38.538Z,79.24
2022-09-12T04:02:24.060Z,79.44
2022-09-12T04:05:09.173Z,79.48
2022-09-12T04:07:54.725Z,79.67
2022-09-12T04:10:40.437Z,78.85
2022-09-12T04:13:25.668Z,79.11
2022-09-12T04:16:12.172Z,79.22
2022-09-12T04:18:57.442Z,79.15
2022-09-12T04:21:42.840Z,79.43
2022-09-12T04:24:28.308Z,79.33
2022-09-12T04:27:13.535Z,78.85
2022-09-12T04:30:01.266Z,79.27
2022-09-12T04:32:46.718Z,79.44
2022-09-12T04:35:32.325Z,79.39
2022-09-12T04:38:17.689Z,79.44
2022-09-12T04:41:13.432Z,79.40
2022-09-12T04:44:03.490Z,79.53
2022-09-12T04:46:49.138Z,79.46
2022-09-12T04:49:34.543Z,80.20
2022-09-12T04:52:20.055Z,79.86
2022-09-12T04:55:05.859Z,79.93
2022-09-12T04:57:51.251Z,79.70
2022-09-12T05:00:36.377Z,79.58
2022-09-12T05:03:21.976Z,79.64
2022-09-12T05:06:10.208Z,79.83
2022-09-12T05:08:56.632Z,80.04
2022-09-12T05:12:03.670Z,80.18
2022-09-12T05:14:49.738Z,80.22
2022-09-12T05:17:35.284Z,80.18
2022-09-12T05:20:21.062Z,80.21
2022-09-12T05:23:06.563Z,80.83
2022-09-12T05:25:53.000Z,80.62
2022-09-12T05:28:39.135Z,80.73
2022-09-12T05:31:26.561Z,81.26
2022-09-12T05:34:12.772Z,81.35
2022-09-12T05:36:58.552Z,81.32
2022-09-12T05:39:44.245Z,81.72
2022-09-12T05:42:30.001Z,81.84
2022-09-12T05:45:15.616Z,81.52
2022-09-12T05:48:02.959Z,81.94
2022-09-12T05:50:48.477Z,82.00
2022-09-12T05:53:34.721Z,81.43
2022-09-12T05:56:25.879Z,81.60
2022-09-12T05:59:15.163Z,81.89
2022-09-12T06:02:00.510Z,81.69
2022-09-12T06:04:46.515Z,81.66
2022-09-12T06:07:32.909Z,82.17
2022-09-12T06:10:18.632Z,82.53
2022-09-12T06:13:04.363Z,82.62
2022-09-12T06:15:50.275Z,82.26
2022-09-12T06:18:37.166Z,82.18
2022-09-12T06:21:23.553Z,82.09
2022-09-12T06:24:08.917Z,82.14
2022-09-12T06:26:54.791Z,82.48
2022-09-12T06:29:40.339Z,82.12
2022-09-12T06:32:25.924Z,81.74
2022-09-12T06:35:12.180Z,82.42
2022-09-12T06:37:57.816Z,82.03
2022-09-12T06:40:44.653Z,82.35
2022-09-12T06:43:30.885Z,82.17
2022-09-12T06:46:16.258Z,82.22
2022-09-12T06:49:01.912Z,81.82
2022-09-12T06:51:48.340Z,81.92
2022-09-12T06:54:34.107Z,81.74
2022-09-12T06:57:19.310Z,82.08
2022-09-12T07:00:05.882Z,82.20
2022-09-12T07:02:56.681Z,81.94
2022-09-12T07:05:42.718Z,81.73
2022-09-12T07:08:31.707Z,81.46
2022-09-12T07:11:23.841Z,81.52
2022-09-12T07:14:13.219Z,81.64
2022-09-12T07:16:59.033Z,80.92
2022-09-12T07:19:44.386Z,81.04
2022-09-12T07:22:29.704Z,81.12
2022-09-12T07:25:15.168Z,80.85
2022-09-12T07:28:00.822Z,80.86
2022-09-12T07:30:46.439Z,80.69
2022-09-12T07:33:32.630Z,81.03
2022-09-12T07:36:20.753Z,80.08
2022-09-12T07:39:06.420Z,80.18
2022-09-12T07:41:51.755Z,79.87
2022-09-12T07:44:37.312Z,79.90
2022-09-12T07:47:22.586Z,80.18
2022-09-12T07:50:08.326Z,79.87
2022-09-12T07:52:55.314Z,79.89
2022-09-12T07:55:41.276Z,80.04
2022-09-12T07:58:26.921Z,80.34
2022-09-12T08:01:13.373Z,80.51
2022-09-12T08:04:00.023Z,80.77
2022-09-12T08:06:45.653Z,79.91
2022-09-12T08:09:31.099Z,80.14
2022-09-12T08:12:17.885Z,80.10
2022-09-12T08:15:03.698Z,80.36
2022-09-12T08:17:49.147Z,80.26
2022-09-12T08:20:34.320Z,79.91
2022-09-12T08:23:21.970Z,79.54
2022-09-12T08:26:07.502Z,79.63
2022-09-12T08:28:53.900Z,79.06
2022-09-12T08:31:41.333Z,78.82
2022-09-12T08:34:27.129Z,78.70
2022-09-12T08:37:12.304Z,79.11
2022-09-12T08:39:58.056Z,77.99
2022-09-12T08:48:28.930Z,78.06
2022-09-12T08:51:19.376Z,77.50
2022-09-12T08:54:19.046Z,77.19
2022-09-12T08:57:06.904Z,76.92
2022-09-12T08:59:53.186Z,76.39
2022-09-12T09:03:10.106Z,76.02
2022-09-12T09:06:01.767Z,75.64
2022-09-12T09:09:23.822Z,75.37
2022-09-12T09:12:15.722Z,74.42
2022-09-12T09:15:24.868Z,74.15
2022-09-12T09:18:31.871Z,74.05
2022-09-12T09:21:23.818Z,73.94
2022-09-12T09:24:14.794Z,73.46
2022-09-12T09:27:41.637Z,73.13
2022-09-12T09:30:28.954Z,72.90
2022-09-12T09:33:27.898Z,72.77
2022-09-12T09:36:35.179Z,72.09
2022-09-12T09:39:56.192Z,72.01
2022-09-12T09:43:03.180Z,70.66
2022-09-12T09:45:50.125Z,70.28
2022-09-12T09:48:38.101Z,70.25
2022-09-12T09:51:30.017Z,70.04
2022-09-12T09:54:25.731Z,69.37
2022-09-12T09:57:36.337Z,68.59
2022-09-12T10:00:32.403Z,68.43
2022-09-12T10:03:26.795Z,67.98
2022-09-12T10:06:36.087Z,68.26
2022-09-12T10:09:25.906Z,67.01
2022-09-12T10:12:28.537Z,67.62
2022-09-12T10:15:29.553Z,66.45
2022-09-12T10:18:34.336Z,66.89
2022-09-12T10:21:33.507Z,66.08
2022-09-12T10:24:25.854Z,65.45
2022-09-12T10:27:20.251Z,65.50
2022-09-12T10:30:14.773Z,64.53
2022-09-12T10:33:11.047Z,63.88
2022-09-12T10:35:57.286Z,63.26
2022-09-12T10:38:51.065Z,63.63
2022-09-12T10:41:39.937Z,62.10
2022-09-12T10:44:28.651Z,63.15
2022-09-12T10:56:22.775Z,62.53
2022-09-12T11:00:15.085Z,61.82
2022-09-12T11:03:27.324Z,61.89
2022-09-12T11:07:16.540Z,61.80
2022-09-12T11:15:30.871Z,62.35
2022-09-12T11:18:27.457Z,62.30
2022-09-12T11:21:46.836Z,62.22
2022-09-12T11:24:48.974Z,61.88
2022-09-12T11:27:48.125Z,61.73
2022-09-12T11:31:04.855Z,61.52
2022-09-12T11:34:58.311Z,61.58
2022-09-12T11:48:17.480Z,57.75
2022-09-12T12:00:56.150Z,56.44
2022-09-12T12:03:55.609Z,55.87
2022-09-12T12:06:54.041Z,56.00
2022-09-12T12:09:52.993Z,56.24
2022-09-12T12:27:44.323Z,54.31
2022-09-12T12:44:33.583Z,51.44
2022-09-12T12:48:08.118Z,52.66
2022-09-12T12:50:53.926Z,52.53
2022-09-12T12:53:42.032Z,52.04
2022-09-12T13:01:23.260Z,51.69
2022-09-12T13:04:46.454Z,51.62
2022-09-12T13:07:36.999Z,49.06
2022-09-12T13:10:27.131Z,51.77
2022-09-12T13:13:25.491Z,51.27
2022-09-12T13:16:11.467Z,50.34
2022-09-12T13:23:03.892Z,50.32
2022-09-12T13:26:24.203Z,50.25
2022-09-12T13:29:17.414Z,50.06
2022-09-12T13:32:03.517Z,49.16
2022-09-12T13:35:52.139Z,49.85
2022-09-12T13:42:42.839Z,50.26
2022-09-12T13:45:28.497Z,49.56
2022-09-12T13:48:18.366Z,48.30
2022-09-12T13:51:05.927Z,49.64
2022-09-12T13:53:53.152Z,49.87
2022-09-12T13:56:47.722Z,47.61
2022-09-12T14:00:06.233Z,49.46
2022-09-12T14:03:14.374Z,50.25
2022-09-12T14:06:01.581Z,49.72
2022-09-12T14:08:48.386Z,49.97
2022-09-12T14:12:27.345Z,49.74
2022-09-12T14:15:38.819Z,49.94
2022-09-12T14:18:45.397Z,49.83
2022-09-12T14:21:36.607Z,50.06
2022-09-12T14:24:26.415Z,49.94
2022-09-12T14:27:12.644Z,49.55
2022-09-12T14:30:09.480Z,49.95
2022-09-12T14:33:18.962Z,49.92
2022-09-12T14:36:43.573Z,49.74
2022-09-12T15:30:54.257Z,49.42
2022-09-12T15:34:09.522Z,49.48
2022-09-12T15:36:55.275Z,49.64
2022-09-12T15:40:13.379Z,49.69
2022-09-12T15:43:05.295Z,50.24
2022-09-12T15:45:51.787Z,50.47
2022-09-12T15:48:40.134Z,50.72
2022-09-12T15:51:25.679Z,50.99
2022-09-12T15:54:21.669Z,50.95
2022-09-12T15:57:08.051Z,51.15
2022-09-12T15:59:59.739Z,51.57
2022-09-12T16:02:47.025Z,52.22
2022-09-12T16:05:33.067Z,52.56
2022-09-12T16:08:18.484Z,52.84
2022-09-12T16:11:24.880Z,52.99
2022-09-12T16:14:13.373Z,53.91
2022-09-12T16:16:59.267Z,54.29
2022-09-12T16:19:44.846Z,54.97
2022-09-12T16:22:30.579Z,55.36
2022-09-12T16:25:17.323Z,55.90
2022-09-12T16:28:06.115Z,56.27
2022-09-12T16:30:59.579Z,56.84
2022-09-12T16:34:24.310Z,57.36
2022-09-12T16:37:09.785Z,57.72
2022-09-12T16:39:55.823Z,58.06
2022-09-12T16:42:43.760Z,58.27
2022-09-12T16:45:48.448Z,58.74
2022-09-12T16:48:48.057Z,58.97
2022-09-12T16:51:47.540Z,59.17
2022-09-12T16:57:27.391Z,59.06
2022-09-12T17:00:12.734Z,59.16
2022-09-12T17:02:59.261Z,59.80
2022-09-12T17:05:44.902Z,60.19
2022-09-12T17:08:31.017Z,60.12
2022-09-12T17:11:17.941Z,60.49
2022-09-12T17:14:07.131Z,60.48
2022-09-12T17:16:53.511Z,61.08
2022-09-12T17:19:39.127Z,61.30
2022-09-12T17:22:24.660Z,61.41
2022-09-12T17:25:10.581Z,61.02
2022-09-12T17:27:55.833Z,61.07
2022-09-12T17:30:41.824Z,61.34
2022-09-12T17:33:28.867Z,61.52
2022-09-12T17:36:17.057Z,61.12
2022-09-12T17:39:04.002Z,61.76
2022-09-12T17:41:52.047Z,61.99
2022-09-12T17:44:38.070Z,62.93
2022-09-12T17:47:23.428Z,62.75
2022-09-12T17:50:30.912Z,63.08
2022-09-12T17:53:16.168Z,63.36
2022-09-12T17:56:05.662Z,63.52
2022-09-12T17:58:51.231Z,62.91
2022-09-12T18:01:55.126Z,63.09
2022-09-12T18:04:41.533Z,62.84
2022-09-12T18:07:26.867Z,62.75
2022-09-12T18:10:12.665Z,63.20
2022-09-12T18:12:58.805Z,63.40
2022-09-12T18:15:44.420Z,63.69
2022-09-12T18:18:29.913Z,63.70
2022-09-12T18:21:15.555Z,64.37
2022-09-12T18:24:01.415Z,64.64
2022-09-12T18:26:47.018Z,64.58
2022-09-12T18:29:32.315Z,64.84
2022-09-12T18:32:18.105Z,64.95
2022-09-12T18:35:03.585Z,65.32
2022-09-12T18:37:49.351Z,65.45
2022-09-12T18:40:34.599Z,65.29
2022-09-12T18:43:20.086Z,65.47
2022-09-12T18:46:12.231Z,65.49
2022-09-12T18:48:59.045Z,65.46
2022-09-12T18:51:44.548Z,65.40
2022-09-12T18:54:30.066Z,65.38
2022-09-12T18:57:15.453Z,66.13
2022-09-12T19:00:03.261Z,65.71
2022-09-12T19:02:49.144Z,65.88
2022-09-12T19:05:35.531Z,66.03
2022-09-12T19:08:20.834Z,66.19
2022-09-12T19:11:07.929Z,66.23
2022-09-12T19:13:54.481Z,66.77
2022-09-12T19:16:40.056Z,66.93
2022-09-12T19:19:25.361Z,66.92
2022-09-12T19:22:10.856Z,67.15
2022-09-12T19:24:56.211Z,67.56
2022-09-12T19:27:41.732Z,67.38
2022-09-12T19:30:27.202Z,67.28
2022-09-12T19:33:12.891Z,67.11
2022-09-12T19:36:03.264Z,67.29
2022-09-12T19:38:49.007Z,67.76
2022-09-12T19:41:35.073Z,67.36
2022-09-12T19:44:20.460Z,67.67
2022-09-12T19:47:06.128Z,67.98
2022-09-12T19:49:52.508Z,68.08
2022-09-12T19:52:37.975Z,67.92
2022-09-12T19:55:23.647Z,67.56
2022-09-12T19:58:09.194Z,67.84
2022-09-12T20:00:56.037Z,68.30
2022-09-12T20:03:42.649Z,68.16
2022-09-12T20:06:28.826Z,68.59
2022-09-12T20:09:14.309Z,68.46
2022-09-12T20:11:59.693Z,68.28
2022-09-12T20:14:45.020Z,68.42
2022-09-12T20:17:31.432Z,69.27
2022-09-12T20:20:16.989Z,68.88
2022-09-12T20:23:02.934Z,69.22
2022-09-12T20:25:48.855Z,69.34
2022-09-12T20:28:38.615Z,68.62
2022-09-12T20:31:24.291Z,69.38
2022-09-12T20:34:18.707Z,69.70
2022-09-12T20:37:04.045Z,69.57
2022-09-12T20:39:50.974Z,69.10
2022-09-12T20:42:36.733Z,69.54
2022-09-12T20:45:22.703Z,69.47
2022-09-12T20:48:07.949Z,69.83
2022-09-12T20:50:53.576Z,69.34
2022-09-12T20:53:39.168Z,70.04
2022-09-12T20:56:26.698Z,69.84
2022-09-12T20:59:12.774Z,69.64
2022-09-12T21:01:58.625Z,70.02
2022-09-12T21:04:44.377Z,70.00
2022-09-12T21:07:30.830Z,70.39
2022-09-12T21:10:16.046Z,70.40
2022-09-12T21:13:01.718Z,70.08
2022-09-12T21:15:47.020Z,70.66
2022-09-12T21:18:34.526Z,70.42
2022-09-12T21:21:19.876Z,70.66
2022-09-12T21:24:05.763Z,70.38
2022-09-12T21:29:40.053Z,70.89
2022-09-12T21:32:25.749Z,71.02
2022-09-12T21:35:11.194Z,70.78
2022-09-12T21:37:57.298Z,71.01
2022-09-12T21:40:42.869Z,71.26
2022-09-12T21:43:28.515Z,71.34
2022-09-12T21:46:14.071Z,71.11
2022-09-12T21:48:59.534Z,71.32
2022-09-12T21:51:44.965Z,71.42
2022-09-12T21:54:30.352Z,71.46
2022-09-12T21:57:15.887Z,71.75
2022-09-12T22:00:01.626Z,71.84
2022-09-12T22:02:47.945Z,71.30
2022-09-12T22:05:34.380Z,71.58
2022-09-12T22:08:19.870Z,71.44
2022-09-12T22:11:10.776Z,71.83
2022-09-12T22:13:56.646Z,72.40
2022-09-12T22:16:41.949Z,72.08
2022-09-12T22:19:27.451Z,72.06
2022-09-12T22:22:31.558Z,72.28
2022-09-12T22:25:17.083Z,72.33
2022-09-12T22:28:02.858Z,72.31
2022-09-12T22:30:51.039Z,72.47
2022-09-12T22:33:36.484Z,72.41
2022-09-12T22:36:21.814Z,72.43
2022-09-12T22:39:07.730Z,72.69
2022-09-12T22:41:53.240Z,72.89
2022-09-12T22:44:38.608Z,73.38
2022-09-12T22:47:24.123Z,72.95
2022-09-12T22:50:09.575Z,72.89
2022-09-12T22:52:55.140Z,72.69
2022-09-12T22:55:43.774Z,73.11
2022-09-12T22:58:29.623Z,73.04
2022-09-12T23:01:15.238Z,72.98
2022-09-12T23:04:01.573Z,73.17
2022-09-12T23:06:47.653Z,72.94
2022-09-12T23:09:35.392Z,73.21
2022-09-12T23:12:21.164Z,73.26
2022-09-12T23:15:07.065Z,73.44
2022-09-12T23:17:52.300Z,73.36
2022-09-12T23:20:37.809Z,73.46
2022-09-12T23:23:23.096Z,73.16
2022-09-12T23:26:12.633Z,73.67
2022-09-12T23:29:01.222Z,73.92
2022-09-12T23:31:47.297Z,73.55
2022-09-12T23:34:33.545Z,73.56
2022-09-12T23:37:21.782Z,73.80
2022-09-12T23:40:08.297Z,73.92
2022-09-12T23:42:53.442Z,74.17
2022-09-12T23:45:38.649Z,74.05
2022-09-12T23:48:24.309Z,73.38
2022-09-12T23:51:11.162Z,74.12
2022-09-12T23:53:57.015Z,73.84
2022-09-12T23:56:42.698Z,73.81
2022-09-12T23:59:28.183Z,74.00
